Time;durP1;ratioP1;P1;durP2;ratioP2;P2;SDS_P1;SDS_P2;PMS_P1;PMS_P2;Temp;Humidity;BMP_temperature;BMP_pressure;BME280_temperature;BME280_humidity;BME280_pressure;Samples;Min_cycle;Max_cycle;Signal;HPM_P1;HPM_P2
2023/11/17 00:02:22;;;;;;;2.25;1.67;;;5.80;99.90;;;;;;5014118;28;20309;-72
2023/11/17 00:04:50;;;;;;;1.80;1.70;;;5.80;99.90;;;;;;5013512;28;20588;-71
2023/11/17 00:07:17;;;;;;;2.25;1.80;;;5.80;99.90;;;;;;5013917;28;20201;-71
2023/11/17 00:09:44;;;;;;;1.85;1.65;;;5.70;99.90;;;;;;5011657;28;20210;-72
2023/11/17 00:12:10;;;;;;;1.45;1.35;;;5.70;99.90;;;;;;5010660;28;20315;-72
2023/11/17 00:14:37;;;;;;;1.95;1.70;;;5.60;99.90;;;;;;5012767;28;20226;-71
2023/11/17 04:33:05;;;;;;;1.52;1.23;;;5.10;99.90;;;;;;4925760;29;20222;-72
2023/11/17 04:35:32;;;;;;;1.55;1.35;;;5.10;99.90;;;;;;4924691;29;20232;-72
2023/11/17 04:37:59;;;;;;;1.25;0.95;;;5.10;99.90;;;;;;4931006;29;20225;-72
2023/11/17 04:40:27;;;;;;;1.25;1.15;;;5.10;99.90;;;;;;4932078;29;20737;-73
2023/11/17 04:42:53;;;;;;;1.00;0.90;;;5.10;99.90;;;;;;4932305;29;20218;-73
2023/11/17 04:45:20;;;;;;;1.45;1.30;;;5.10;99.90;;;;;;4930544;29;20204;-73
2023/11/17 04:47:48;;;;;;;1.13;0.90;;;5.10;99.90;;;;;;4926758;29;20275;-73
2023/11/17 04:50:16;;;;;;;1.75;1.45;;;5.10;99.90;;;;;;4928856;29;20222;-73
2023/11/17 04:52:43;;;;;;;1.42;1.10;;;5.10;99.90;;;;;;4934908;29;20594;-73
2023/11/17 04:55:13;;;;;;;1.08;0.98;;;5.10;99.90;;;;;;4933577;29;20225;-73
2023/11/17 04:57:39;;;;;;;1.08;0.90;;;5.10;99.90;;;;;;4934813;29;20206;-73
2023/11/17 05:00:13;;;;;;;1.38;1.10;;;5.10;99.90;;;;;;4934387;29;20221;-74
2023/11/17 05:02:42;;;;;;;1.38;1.10;;;5.10;99.90;;;;;;4927389;29;20292;-73
2023/11/17 05:05:10;;;;;;;1.20;1.10;;;5.10;99.90;;;;;;4931751;29;20335;-73
2023/11/17 05:07:39;;;;;;;1.20;1.00;;;5.10;99.90;;;;;;4927123;29;20210;-73
2023/11/17 05:10:08;;;;;;;1.27;1.10;;;5.10;99.90;;;;;;4922961;29;20215;-73
2023/11/17 05:12:35;;;;;;;1.00;0.90;;;5.00;99.90;;;;;;4923565;29;20310;-73
2023/11/17 05:15:02;;;;;;;1.85;1.20;;;5.00;99.90;;;;;;4923923;29;20225;-73
2023/11/17 05:17:33;;;;;;;2.20;1.38;;;5.00;99.90;;;;;;4920769;29;20320;-73
2023/11/17 05:20:00;;;;;;;1.35;1.15;;;5.00;99.90;;;;;;4918611;29;20704;-72
2023/11/17 05:22:27;;;;;;;1.50;1.17;;;5.00;99.90;;;;;;4922213;29;20678;-72
2023/11/17 05:24:55;;;;;;;1.50;1.15;;;5.00;99.90;;;;;;4916109;29;20299;-72
2023/11/17 05:27:22;;;;;;;1.20;1.00;;;5.00;99.90;;;;;;4931466;29;20213;-72
2023/11/17 05:29:49;;;;;;;1.15;1.05;;;5.00;99.90;;;;;;4933213;29;20214;-72
2023/11/17 05:32:15;;;;;;;2.47;1.20;;;4.90;99.90;;;;;;4931235;29;20244;-72
2023/11/17 05:34:42;;;;;;;1.38;1.27;;;5.00;99.90;;;;;;4932365;29;20253;-71
2023/11/17 05:37:09;;;;;;;2.15;1.65;;;5.00;99.90;;;;;;4931671;29;20209;-71
2023/11/17 05:39:35;;;;;;;1.75;1.17;;;4.90;99.90;;;;;;4932867;29;20213;-72
2023/11/17 05:42:04;;;;;;;1.70;1.20;;;4.90;99.90;;;;;;4932209;29;20229;-72
2023/11/17 05:44:30;;;;;;;3.33;1.42;;;4.90;99.90;;;;;;4932321;29;20213;-72
2023/11/17 05:46:57;;;;;;;1.17;1.08;;;4.90;99.90;;;;;;4932912;29;20691;-72
2023/11/17 05:49:24;;;;;;;1.17;1.02;;;4.90;99.90;;;;;;4931342;29;20286;-72
2023/11/17 05:51:50;;;;;;;0.90;0.90;;;4.90;99.90;;;;;;4932993;29;20229;-72
2023/11/17 05:54:17;;;;;;;1.08;0.95;;;4.90;99.90;;;;;;4931603;29;20277;-72
2023/11/17 05:56:44;;;;;;;1.02;0.93;;;4.90;99.90;;;;;;4932701;29;20215;-72
2023/11/17 05:59:12;;;;;;;2.70;1.90;;;4.90;99.90;;;;;;4931991;29;20209;-72
2023/11/17 06:01:40;;;;;;;1.00;0.90;;;4.80;99.90;;;;;;4932960;29;20319;-72
2023/11/17 06:04:11;;;;;;;1.85;1.25;;;4.80;99.90;;;;;;4931858;29;20301;-72
2023/11/17 06:06:38;;;;;;;1.45;1.33;;;4.90;99.90;;;;;;4932824;29;20260;-71
2023/11/17 06:09:05;;;;;;;1.10;1.00;;;4.90;99.90;;;;;;4932633;29;20212;-72
2023/11/17 06:11:35;;;;;;;2.03;1.30;;;4.80;99.90;;;;;;4915280;29;20406;-72
2023/11/17 06:14:03;;;;;;;2.65;1.45;;;4.80;99.90;;;;;;4914826;29;20667;-72
2023/11/17 06:16:31;;;;;;;2.90;1.40;;;4.80;99.90;;;;;;4914733;29;20215;-72
2023/11/17 06:18:58;;;;;;;1.13;1.00;;;4.80;99.90;;;;;;4915142;29;20212;-72
2023/11/17 06:21:26;;;;;;;1.10;1.00;;;4.80;99.90;;;;;;4914762;29;20225;-72
2023/11/17 06:23:53;;;;;;;1.35;0.98;;;4.80;99.90;;;;;;4914966;29;20214;-72
2023/11/17 06:26:19;;;;;;;1.55;1.45;;;4.80;99.90;;;;;;4914393;29;20210;-72
2023/11/17 06:28:46;;;;;;;2.08;1.10;;;4.80;99.90;;;;;;4914937;29;20214;-72
2023/11/17 06:31:14;;;;;;;0.95;0.85;;;4.80;99.90;;;;;;4914644;29;20243;-72
2023/11/17 06:33:42;;;;;;;1.13;1.02;;;4.80;99.90;;;;;;4915048;29;20209;-72
2023/11/17 06:36:11;;;;;;;1.08;0.95;;;4.80;99.90;;;;;;4914197;29;20264;-72
2023/11/17 06:38:38;;;;;;;2.17;1.25;;;4.80;99.90;;;;;;4915181;29;20226;-72
2023/11/17 06:41:05;;;;;;;1.27;1.02;;;4.80;99.90;;;;;;4914788;29;20229;-72
2023/11/17 06:43:32;;;;;;;1.20;1.10;;;4.90;99.90;;;;;;4915165;29;20213;-72
2023/11/17 06:45:59;;;;;;;1.10;1.00;;;4.90;99.90;;;;;;4914866;29;20214;-72
2023/11/17 06:48:28;;;;;;;1.20;0.90;;;4.90;99.90;;;;;;4914913;29;20677;-72
2023/11/17 06:50:56;;;;;;;1.25;1.15;;;4.90;99.90;;;;;;4915123;29;20225;-72
2023/11/17 06:53:23;;;;;;;1.30;1.20;;;4.90;99.90;;;;;;4914688;29;20206;-72
2023/11/17 06:55:50;;;;;;;1.10;1.00;;;4.90;99.90;;;;;;4914453;29;20222;-72
2023/11/17 06:58:17;;;;;;;0.98;0.93;;;4.90;99.90;;;;;;4914143;29;20680;-72
2023/11/17 07:00:45;;;;;;;1.42;1.27;;;4.80;99.90;;;;;;4914360;29;20233;-72
2023/11/17 07:03:12;;;;;;;1.02;0.93;;;4.80;99.90;;;;;;4914556;29;20214;-72
2023/11/17 07:05:40;;;;;;;1.45;1.00;;;4.80;99.90;;;;;;4914405;29;20214;-72
2023/11/17 07:08:08;;;;;;;1.10;1.00;;;4.90;99.90;;;;;;4915106;29;20261;-72
2023/11/17 07:10:36;;;;;;;0.93;0.82;;;4.80;99.90;;;;;;4933577;29;20228;-72
2023/11/17 07:13:03;;;;;;;1.10;1.00;;;4.80;99.90;;;;;;4933600;29;20588;-72
2023/11/17 07:15:31;;;;;;;2.35;1.33;;;4.80;99.90;;;;;;4932239;29;20294;-72
2023/11/17 07:17:58;;;;;;;1.20;1.10;;;4.80;99.90;;;;;;4933129;29;20327;-72
2023/11/17 07:20:25;;;;;;;1.33;0.93;;;4.70;99.90;;;;;;4932403;29;20211;-72
2023/11/17 07:22:52;;;;;;;1.23;0.90;;;4.80;99.90;;;;;;4933351;29;20210;-72
2023/11/17 07:25:22;;;;;;;1.55;1.02;;;4.80;99.90;;;;;;4931719;29;20219;-72
2023/11/17 07:27:49;;;;;;;1.45;1.10;;;4.80;99.90;;;;;;4932901;29;20281;-72
2023/11/17 07:30:19;;;;;;;1.67;1.10;;;4.80;99.90;;;;;;4931942;29;20225;-72
2023/11/17 07:32:46;;;;;;;1.10;1.00;;;4.80;99.90;;;;;;4932736;29;20581;-72
2023/11/17 07:35:13;;;;;;;1.33;1.10;;;4.80;99.90;;;;;;4931578;29;20226;-72
2023/11/17 07:37:40;;;;;;;1.20;1.00;;;4.80;99.90;;;;;;4932305;29;20211;-72
2023/11/17 07:40:09;;;;;;;2.75;1.10;;;4.80;99.90;;;;;;4930163;29;20231;-72
2023/11/17 07:42:39;;;;;;;2.30;1.30;;;4.80;99.90;;;;;;4914317;29;20242;-72
2023/11/17 07:45:07;;;;;;;1.35;1.00;;;4.80;99.90;;;;;;4930719;29;20262;-72
2023/11/17 07:47:37;;;;;;;1.13;1.02;;;4.80;99.90;;;;;;4933402;29;20204;-72
2023/11/17 07:50:07;;;;;;;1.10;1.00;;;4.80;99.90;;;;;;4933918;29;20216;-72
2023/11/17 07:52:34;;;;;;;1.52;1.20;;;4.80;99.90;;;;;;4914794;29;20231;-72
2023/11/17 07:55:01;;;;;;;1.23;1.10;;;4.90;99.90;;;;;;4914300;29;20235;-72
2023/11/17 07:57:29;;;;;;;1.85;1.67;;;4.90;99.90;;;;;;4914332;29;20299;-71
2023/11/17 07:59:59;;;;;;;1.00;0.90;;;5.00;99.90;;;;;;4914414;29;20264;-71
2023/11/17 08:02:26;;;;;;;1.35;1.23;;;5.00;99.90;;;;;;4929842;29;21192;-72
2023/11/17 08:04:56;;;;;;;1.38;0.98;;;5.10;99.90;;;;;;4931557;29;20229;-72
2023/11/17 08:07:23;;;;;;;2.15;1.20;;;5.10;99.90;;;;;;4921720;29;20211;-72
2023/11/17 08:09:51;;;;;;;1.55;1.30;;;5.20;99.90;;;;;;4919306;29;20670;-72
2023/11/17 08:12:21;;;;;;;1.40;1.30;;;5.20;99.90;;;;;;4917263;29;20283;-72
2023/11/17 08:14:50;;;;;;;1.38;1.10;;;5.20;99.90;;;;;;4924357;29;20253;-72
2023/11/17 08:17:19;;;;;;;3.03;1.40;;;5.30;99.90;;;;;;4931309;29;20207;-72
2023/11/17 08:19:46;;;;;;;1.40;1.30;;;5.30;99.90;;;;;;4921921;29;20233;-72
2023/11/17 08:22:14;;;;;;;1.15;1.00;;;5.40;99.90;;;;;;4933129;29;20231;-72
2023/11/17 08:24:41;;;;;;;1.30;1.00;;;5.40;99.90;;;;;;4926995;29;20248;-72
2023/11/17 08:27:08;;;;;;;1.00;0.90;;;5.50;99.90;;;;;;4933841;29;20290;-72
2023/11/17 08:29:35;;;;;;;1.52;1.33;;;5.60;99.90;;;;;;4926650;29;20528;-72
2023/11/17 08:32:03;;;;;;;3.80;1.13;;;5.60;99.90;;;;;;4933925;29;20242;-72
2023/11/17 08:34:32;;;;;;;1.90;1.10;;;5.70;99.90;;;;;;4918802;29;20270;-72
2023/11/17 08:37:00;;;;;;;1.55;1.45;;;5.70;99.90;;;;;;4921649;29;20219;-72
2023/11/17 08:39:31;;;;;;;1.48;1.30;;;5.70;99.90;;;;;;4930892;29;20246;-73
2023/11/17 08:41:59;;;;;;;1.85;1.50;;;5.70;99.90;;;;;;4933129;29;20221;-73
2023/11/17 08:44:28;;;;;;;1.50;1.27;;;5.70;99.90;;;;;;4929492;29;20717;-73
2023/11/17 08:46:56;;;;;;;2.00;1.42;;;5.70;99.90;;;;;;4917058;29;20216;-73
2023/11/17 08:49:25;;;;;;;1.77;1.30;;;5.70;99.90;;;;;;4923747;29;20613;-73
2023/11/17 08:51:55;;;;;;;1.42;1.10;;;5.80;99.90;;;;;;4933079;29;20234;-73
2023/11/17 08:54:24;;;;;;;1.30;1.10;;;5.70;99.90;;;;;;4924610;29;20642;-72
2023/11/17 08:56:52;;;;;;;1.80;1.15;;;5.80;99.90;;;;;;4932906;29;20220;-73
2023/11/17 08:59:20;;;;;;;1.40;1.30;;;5.80;99.90;;;;;;4924973;29;20216;-73
2023/11/17 09:01:50;;;;;;;1.73;1.25;;;5.90;99.90;;;;;;4922595;29;20771;-73
2023/11/17 09:04:17;;;;;;;1.33;1.00;;;6.10;99.90;;;;;;4923507;29;20300;-73
2023/11/17 09:06:44;;;;;;;1.52;1.20;;;6.70;99.90;;;;;;4919323;29;20209;-73
2023/11/17 09:09:12;;;;;;;1.10;1.00;;;7.00;99.90;;;;;;4920465;29;20210;-73
2023/11/17 09:11:39;;;;;;;1.20;1.10;;;7.10;99.90;;;;;;4920134;29;20323;-73
2023/11/17 09:14:07;;;;;;;1.52;1.40;;;7.20;99.90;;;;;;4919489;29;20206;-73
2023/11/17 09:16:34;;;;;;;1.15;1.05;;;7.10;99.90;;;;;;4921015;29;20229;-73
2023/11/17 09:19:01;;;;;;;1.00;0.90;;;7.10;99.90;;;;;;4920003;29;20675;-73
2023/11/17 09:21:28;;;;;;;1.55;1.13;;;7.10;99.90;;;;;;4921332;29;20233;-73
2023/11/17 09:23:55;;;;;;;1.05;0.95;;;7.00;99.90;;;;;;4919891;29;20233;-73
2023/11/17 09:26:23;;;;;;;1.23;1.13;;;6.90;99.90;;;;;;4921488;29;20205;-73
2023/11/17 09:28:51;;;;;;;1.00;0.90;;;6.90;99.90;;;;;;4919941;29;20210;-73
2023/11/17 09:31:18;;;;;;;1.00;0.80;;;6.80;99.90;;;;;;4921412;29;20750;-73
2023/11/17 09:33:45;;;;;;;0.80;0.70;;;6.80;99.90;;;;;;4919803;29;20221;-73
2023/11/17 09:36:11;;;;;;;1.50;1.40;;;6.70;99.90;;;;;;4920105;29;20238;-73
2023/11/17 09:38:38;;;;;;;2.10;1.30;;;6.70;99.90;;;;;;4920732;29;20219;-73
2023/11/17 09:41:06;;;;;;;3.08;1.20;;;6.80;99.90;;;;;;4920063;29;20228;-73
2023/11/17 09:43:38;;;;;;;1.48;1.05;;;7.00;99.90;;;;;;4915407;29;20595;-73
2023/11/17 09:46:06;;;;;;;1.63;1.20;;;7.20;99.90;;;;;;4915479;29;20213;-73
2023/11/17 09:48:36;;;;;;;1.50;1.20;;;7.60;99.90;;;;;;4915534;29;20253;-73
2023/11/17 09:51:04;;;;;;;1.40;1.00;;;7.90;99.90;;;;;;4916049;29;20313;-73
2023/11/17 09:53:33;;;;;;;1.10;1.00;;;8.00;99.90;;;;;;4915780;29;20214;-73
2023/11/17 09:56:02;;;;;;;2.00;1.15;;;7.90;99.90;;;;;;4915471;29;20233;-73
2023/11/17 09:58:30;;;;;;;1.60;1.27;;;7.70;99.90;;;;;;4915345;29;20212;-73
2023/11/17 10:01:00;;;;;;;2.45;1.50;;;7.50;99.90;;;;;;4915860;29;20257;-73
2023/11/17 10:03:29;;;;;;;1.13;0.90;;;7.40;99.90;;;;;;4915373;29;20608;-73
2023/11/17 10:05:58;;;;;;;1.48;1.10;;;7.30;99.90;;;;;;4915164;29;20216;-73
2023/11/17 10:08:26;;;;;;;0.90;0.80;;;7.10;99.90;;;;;;4915102;29;20655;-74
2023/11/17 10:10:55;;;;;;;1.05;0.88;;;7.10;99.90;;;;;;4915383;29;20232;-73
2023/11/17 10:13:25;;;;;;;1.08;0.90;;;6.90;99.90;;;;;;4915315;29;20206;-73
2023/11/17 10:15:52;;;;;;;1.10;1.00;;;6.80;99.90;;;;;;4914835;29;20309;-73
2023/11/17 10:18:24;;;;;;;0.88;0.88;;;6.70;99.90;;;;;;4915307;29;20210;-73
2023/11/17 10:20:51;;;;;;;1.25;1.00;;;6.70;99.90;;;;;;4915136;29;20233;-73
2023/11/17 10:23:19;;;;;;;1.10;0.98;;;6.80;99.90;;;;;;4915187;29;20675;-73
2023/11/17 10:25:52;;;;;;;1.42;1.05;;;6.90;99.90;;;;;;4914487;29;20305;-73
2023/11/17 10:28:19;;;;;;;1.58;1.20;;;6.90;99.90;;;;;;4915054;29;20215;-73
2023/11/17 10:30:46;;;;;;;1.10;0.80;;;6.90;99.90;;;;;;4914702;29;20236;-73
2023/11/17 10:33:20;;;;;;;1.15;1.02;;;6.90;99.90;;;;;;4914947;29;20689;-73
2023/11/17 10:36:01;;;;;;;0.80;0.80;;;6.90;99.90;;;;;;4913747;29;20316;-73
2023/11/17 10:38:28;;;;;;;1.10;1.00;;;6.90;99.90;;;;;;4914720;29;20205;-73
2023/11/17 10:40:55;;;;;;;1.40;1.20;;;6.90;99.90;;;;;;4915019;29;20325;-73
2023/11/17 10:43:22;;;;;;;1.05;0.80;;;6.80;99.90;;;;;;4914825;29;20683;-73
2023/11/17 10:45:59;;;;;;;1.00;0.80;;;6.70;99.90;;;;;;4914269;29;20205;-73
2023/11/17 10:48:26;;;;;;;1.20;1.10;;;6.70;99.90;;;;;;4914947;29;20224;-73
2023/11/17 10:51:05;;;;;;;0.90;0.80;;;6.80;99.90;;;;;;4914702;29;20610;-73
2023/11/17 10:53:32;;;;;;;1.00;0.90;;;6.80;99.90;;;;;;4914675;29;20679;-73
2023/11/17 10:55:59;;;;;;;1.30;1.10;;;6.70;99.90;;;;;;4914328;29;20252;-73
2023/11/17 10:58:26;;;;;;;1.15;1.00;;;6.80;99.90;;;;;;4914862;29;20218;-73
2023/11/17 11:00:56;;;;;;;1.45;1.10;;;6.90;99.90;;;;;;4914715;29;20230;-73
2023/11/17 11:03:23;;;;;;;1.10;0.98;;;7.30;99.90;;;;;;4914758;29;20205;-73
2023/11/17 11:05:51;;;;;;;0.90;0.80;;;7.40;99.90;;;;;;4914027;29;20583;-73
2023/11/17 11:08:22;;;;;;;1.20;0.80;;;7.40;99.90;;;;;;4914575;29;20651;-73
2023/11/17 11:10:50;;;;;;;1.30;1.20;;;7.30;99.90;;;;;;4914411;29;20236;-73
2023/11/17 11:13:17;;;;;;;1.27;1.10;;;7.20;99.90;;;;;;4914598;29;20229;-73
2023/11/17 11:15:44;;;;;;;0.80;0.80;;;7.20;99.90;;;;;;4913737;29;20288;-73
2023/11/17 11:18:16;;;;;;;1.00;0.80;;;7.20;99.90;;;;;;4914582;29;20232;-73
2023/11/17 11:20:45;;;;;;;0.90;0.70;;;7.30;99.90;;;;;;4914249;29;20234;-73
2023/11/17 11:23:15;;;;;;;0.90;0.80;;;7.30;99.90;;;;;;4914433;29;20755;-72
2023/11/17 11:25:44;;;;;;;0.77;0.70;;;7.30;99.90;;;;;;4913702;29;20593;-73
2023/11/17 11:28:12;;;;;;;1.05;0.80;;;7.40;99.90;;;;;;4914689;29;20277;-73
2023/11/17 11:30:41;;;;;;;3.03;0.90;;;7.40;99.90;;;;;;4914050;29;20718;-73
2023/11/17 11:33:10;;;;;;;1.15;0.90;;;7.40;99.90;;;;;;4914523;29;20244;-73
2023/11/17 11:35:37;;;;;;;1.45;0.88;;;7.30;99.90;;;;;;4913752;29;20214;-73
2023/11/17 11:38:07;;;;;;;1.48;1.00;;;7.30;99.90;;;;;;4914395;29;20213;-74
2023/11/17 11:40:37;;;;;;;1.50;1.25;;;7.30;99.90;;;;;;4914124;29;20258;-74
2023/11/17 11:43:06;;;;;;;1.15;1.05;;;7.30;99.90;;;;;;4914429;29;20248;-73
2023/11/17 11:45:34;;;;;;;1.15;0.98;;;7.30;99.90;;;;;;4913867;29;20210;-73
2023/11/17 11:48:02;;;;;;;1.45;0.93;;;7.20;99.90;;;;;;4917190;29;20212;-74
2023/11/17 11:50:37;;;;;;;0.80;0.70;;;7.20;99.90;;;;;;4917915;29;20214;-73
2023/11/17 11:53:20;;;;;;;1.02;0.93;;;7.10;99.90;;;;;;4917934;29;20205;-73
2023/11/17 11:55:47;;;;;;;1.10;0.90;;;7.00;99.90;;;;;;4916986;29;20244;-73
2023/11/17 11:58:16;;;;;;;1.65;1.15;;;7.00;99.90;;;;;;4917827;29;20229;-73
2023/11/17 12:00:44;;;;;;;1.00;0.90;;;7.00;99.90;;;;;;4917449;29;20230;-73
2023/11/17 12:03:13;;;;;;;0.80;0.70;;;7.00;99.90;;;;;;4917716;29;20270;-73
2023/11/17 12:05:44;;;;;;;1.10;0.80;;;7.10;99.90;;;;;;4916901;29;20213;-73
2023/11/17 12:08:23;;;;;;;0.80;0.70;;;7.10;99.90;;;;;;4917447;29;20213;-73
2023/11/17 12:10:54;;;;;;;1.40;0.90;;;7.10;99.90;;;;;;4917117;29;20234;-73
2023/11/17 12:13:42;;;;;;;0.90;0.80;;;7.00;99.90;;;;;;4917433;29;20675;-73
2023/11/17 12:16:09;;;;;;;1.02;0.80;;;7.00;99.90;;;;;;4916906;29;20233;-73
2023/11/17 12:18:36;;;;;;;1.05;0.95;;;7.00;99.90;;;;;;4917281;29;20221;-73
2023/11/17 12:21:22;;;;;;;1.15;1.02;;;7.00;99.90;;;;;;4917460;29;20316;-73
2023/11/17 12:23:51;;;;;;;1.00;0.80;;;7.20;99.90;;;;;;4916532;29;20221;-73
2023/11/17 12:26:19;;;;;;;1.35;0.80;;;7.30;99.90;;;;;;4916983;29;20198;-73
2023/11/17 12:28:49;;;;;;;0.90;0.80;;;7.40;99.90;;;;;;4916919;29;20587;-74
2023/11/17 12:31:17;;;;;;;1.17;1.00;;;7.50;99.90;;;;;;4916976;29;20234;-73
2023/11/17 12:33:44;;;;;;;1.55;0.88;;;7.50;99.90;;;;;;4917117;29;20214;-73
2023/11/17 12:36:15;;;;;;;1.02;0.90;;;7.60;99.90;;;;;;4916579;29;20238;-73
2023/11/17 12:38:43;;;;;;;1.00;0.90;;;7.60;99.90;;;;;;4916717;29;20220;-73
2023/11/17 12:41:11;;;;;;;1.10;0.70;;;7.70;99.90;;;;;;4916868;29;20230;-73
2023/11/17 12:43:38;;;;;;;0.80;0.70;;;7.70;99.90;;;;;;4917037;29;20221;-73
2023/11/17 12:46:08;;;;;;;0.80;0.70;;;7.60;99.90;;;;;;4916440;29;20217;-73
2023/11/17 12:48:35;;;;;;;0.80;0.70;;;7.50;99.90;;;;;;4916906;29;20218;-73
2023/11/17 12:51:03;;;;;;;0.85;0.70;;;7.40;99.90;;;;;;4916577;29;20237;-72
2023/11/17 12:53:45;;;;;;;0.70;0.63;;;7.30;99.90;;;;;;4916933;29;20536;-73
2023/11/17 12:56:13;;;;;;;0.75;0.68;;;7.20;99.90;;;;;;4916252;29;20232;-73
2023/11/17 12:58:40;;;;;;;0.77;0.68;;;7.10;99.90;;;;;;4917745;29;20221;-73
2023/11/17 13:01:16;;;;;;;1.50;0.85;;;7.00;99.90;;;;;;4916935;29;20244;-73
2023/11/17 13:03:43;;;;;;;0.70;0.60;;;7.00;99.90;;;;;;4916455;29;20220;-72
2023/11/17 13:06:12;;;;;;;1.25;0.80;;;7.00;99.90;;;;;;4915966;29;20228;-72
2023/11/17 13:08:39;;;;;;;0.90;0.70;;;7.10;99.90;;;;;;4916483;29;20209;-72
2023/11/17 13:11:07;;;;;;;0.75;0.65;;;7.10;99.90;;;;;;4923192;29;20737;-72
2023/11/17 13:13:37;;;;;;;0.70;0.63;;;7.20;99.90;;;;;;4923231;29;20217;-72
2023/11/17 13:16:08;;;;;;;0.90;0.68;;;7.20;99.90;;;;;;4921915;29;20759;-72
2023/11/17 13:18:39;;;;;;;0.80;0.70;;;7.30;99.90;;;;;;4924996;29;20212;-72
2023/11/17 13:21:07;;;;;;;0.80;0.80;;;7.20;99.90;;;;;;4925780;29;20316;-73
2023/11/17 13:23:34;;;;;;;1.20;0.85;;;7.20;99.90;;;;;;4916323;29;20214;-72
2023/11/17 13:26:04;;;;;;;1.00;0.80;;;7.10;99.90;;;;;;4915291;29;20239;-73
2023/11/17 13:28:38;;;;;;;0.80;0.70;;;7.10;99.90;;;;;;4916037;29;20237;-72
2023/11/17 13:31:14;;;;;;;0.90;0.77;;;7.00;99.90;;;;;;4926608;29;20229;-72
2023/11/17 13:33:42;;;;;;;0.80;0.70;;;7.00;99.90;;;;;;4916160;29;20265;-72
2023/11/17 13:36:10;;;;;;;1.48;0.90;;;7.00;99.90;;;;;;4918473;29;20205;-72
2023/11/17 13:38:59;;;;;;;0.70;0.60;;;6.90;99.90;;;;;;4917455;29;20648;-72
2023/11/17 13:41:28;;;;;;;0.80;0.68;;;6.90;99.90;;;;;;4916262;29;20233;-72
2023/11/17 13:43:58;;;;;;;0.80;0.70;;;6.90;99.90;;;;;;4915448;29;20234;-71
2023/11/17 13:46:29;;;;;;;0.80;0.80;;;6.90;99.90;;;;;;4918888;29;20209;-71
2023/11/17 13:49:09;;;;;;;0.80;0.70;;;6.80;99.90;;;;;;4921139;29;20215;-74
2023/11/17 13:51:43;;;;;;;0.80;0.70;;;6.80;99.90;;;;;;4922043;29;20261;-73
2023/11/17 13:54:11;;;;;;;1.40;0.80;;;6.80;99.90;;;;;;4919706;29;20264;-73
2023/11/17 13:56:45;;;;;;;0.80;0.73;;;6.80;99.90;;;;;;4918792;29;20252;-74
2023/11/17 13:59:19;;;;;;;0.80;0.70;;;6.70;99.90;;;;;;4918423;29;20634;-73
2023/11/17 14:01:52;;;;;;;0.80;0.80;;;6.60;99.90;;;;;;4921756;29;20316;-73
2023/11/17 14:04:24;;;;;;;0.90;0.80;;;6.60;99.90;;;;;;4918384;29;20212;-73
2023/11/17 14:06:53;;;;;;;0.85;0.85;;;6.70;99.90;;;;;;4918238;29;20273;-72
2023/11/17 14:09:22;;;;;;;0.80;0.70;;;6.50;99.90;;;;;;4914842;29;20212;-73
2023/11/17 14:11:50;;;;;;;1.20;0.90;;;6.50;99.90;;;;;;4915694;29;20238;-74
2023/11/17 14:14:17;;;;;;;1.40;0.90;;;6.50;99.90;;;;;;4927094;29;20215;-73
2023/11/17 14:16:47;;;;;;;1.48;0.85;;;6.50;99.90;;;;;;4920068;29;20320;-74
2023/11/17 14:19:14;;;;;;;1.10;0.70;;;6.50;99.90;;;;;;4916275;29;20562;-74
2023/11/17 14:21:45;;;;;;;1.10;0.90;;;6.50;99.90;;;;;;4917918;29;20289;-74
2023/11/17 14:24:16;;;;;;;1.45;0.80;;;6.50;99.90;;;;;;4912999;29;20227;-75
2023/11/17 14:26:43;;;;;;;1.33;1.20;;;6.50;99.90;;;;;;4914766;29;20219;-74
2023/11/17 14:29:12;;;;;;;1.00;0.80;;;6.50;99.90;;;;;;4913839;29;20288;-73
2023/11/17 14:31:39;;;;;;;1.05;0.95;;;6.50;99.90;;;;;;4914863;29;20232;-73
2023/11/17 14:34:10;;;;;;;1.30;0.93;;;6.50;99.90;;;;;;4914232;29;20588;-74
2023/11/17 14:36:37;;;;;;;0.95;0.75;;;6.50;99.90;;;;;;4914358;29;20219;-74
2023/11/17 14:39:08;;;;;;;0.93;0.80;;;6.40;99.90;;;;;;4914204;29;20237;-74
2023/11/17 14:41:35;;;;;;;1.20;1.10;;;6.40;99.90;;;;;;4914853;29;20234;-73
2023/11/17 14:44:03;;;;;;;1.13;1.02;;;6.40;99.90;;;;;;4912917;29;20585;-73
2023/11/17 14:46:32;;;;;;;1.95;1.38;;;6.40;99.90;;;;;;4914477;29;20276;-73
2023/11/17 14:49:01;;;;;;;2.00;1.10;;;6.40;99.90;;;;;;4913887;29;20605;-73
2023/11/17 14:51:28;;;;;;;1.40;1.30;;;6.40;99.90;;;;;;4924080;29;20236;-72
2023/11/17 14:53:55;;;;;;;1.40;1.30;;;6.40;99.90;;;;;;4922366;29;20208;-72
2023/11/17 14:56:24;;;;;;;1.90;1.23;;;6.40;99.90;;;;;;4920671;29;20271;-72
2023/11/17 14:58:52;;;;;;;1.88;1.50;;;6.40;99.90;;;;;;4914153;29;20227;-73
2023/11/17 15:01:25;;;;;;;1.52;1.15;;;6.40;99.90;;;;;;4914537;29;20339;-72
2023/11/17 15:03:52;;;;;;;1.77;1.17;;;6.40;99.90;;;;;;4916522;29;20227;-72
2023/11/17 15:06:20;;;;;;;1.35;1.00;;;6.30;99.90;;;;;;4923379;29;20216;-72
2023/11/17 15:08:51;;;;;;;1.65;1.10;;;6.30;99.90;;;;;;4921018;29;20260;-72
2023/11/17 15:11:20;;;;;;;1.45;1.35;;;6.30;99.90;;;;;;4927646;29;20321;-72
2023/11/17 15:13:50;;;;;;;2.15;1.40;;;6.20;99.90;;;;;;4926008;29;20214;-73
2023/11/17 15:16:23;;;;;;;1.83;1.52;;;6.20;99.90;;;;;;4917104;29;20213;-72
2023/11/17 15:18:50;;;;;;;1.42;1.10;;;6.10;99.90;;;;;;4919125;29;20240;-72
2023/11/17 15:21:20;;;;;;;1.60;1.30;;;6.00;99.90;;;;;;4917508;29;20257;-72
2023/11/17 15:23:48;;;;;;;1.92;1.35;;;5.90;99.90;;;;;;4923153;29;20228;-72
2023/11/17 15:26:17;;;;;;;2.38;1.30;;;5.90;99.90;;;;;;4922264;29;20213;-72
2023/11/17 15:28:46;;;;;;;2.10;1.90;;;5.80;99.90;;;;;;4923441;29;20670;-71
2023/11/17 15:31:16;;;;;;;1.00;0.90;;;5.70;99.90;;;;;;4922543;29;20860;-71
2023/11/17 15:33:43;;;;;;;6.80;1.38;;;5.70;99.90;;;;;;4925952;29;20222;-73
2023/11/17 15:36:10;;;;;;;1.30;1.20;;;5.60;99.90;;;;;;4919992;29;20213;-72
2023/11/17 15:38:42;;;;;;;1.05;0.95;;;5.60;99.90;;;;;;4921551;29;20248;-74
2023/11/17 15:41:10;;;;;;;2.05;1.40;;;5.50;99.90;;;;;;4916654;29;20223;-73
2023/11/17 15:43:41;;;;;;;1.42;1.13;;;5.40;99.90;;;;;;4922367;29;20226;-73
2023/11/17 15:46:08;;;;;;;1.25;1.10;;;5.40;99.90;;;;;;4920869;29;20219;-72
2023/11/17 15:48:37;;;;;;;2.47;1.58;;;5.40;99.90;;;;;;4916565;29;20238;-72
2023/11/17 15:51:16;;;;;;;1.77;1.10;;;5.40;99.90;;;;;;4924293;29;20335;-74
2023/11/17 15:54:02;;;;;;;4.43;1.80;;;5.30;99.90;;;;;;4917680;29;20221;-72
2023/11/17 15:56:29;;;;;;;2.72;1.40;;;5.30;99.90;;;;;;4921209;29;20242;-72
2023/11/17 15:58:59;;;;;;;1.40;1.30;;;5.20;99.90;;;;;;4918922;29;20236;-73
2023/11/17 16:01:26;;;;;;;1.63;1.52;;;5.10;99.90;;;;;;4915001;29;20232;-72
2023/11/17 16:03:54;;;;;;;1.65;1.55;;;5.10;99.90;;;;;;4916117;29;20255;-72
2023/11/17 16:06:23;;;;;;;2.20;1.85;;;5.10;99.90;;;;;;4919728;29;20632;-72
2023/11/17 16:08:50;;;;;;;2.38;2.00;;;5.00;99.90;;;;;;4923013;29;20207;-72
2023/11/17 16:11:24;;;;;;;2.92;2.10;;;5.00;99.90;;;;;;4916438;29;20319;-72
2023/11/17 16:13:56;;;;;;;1.95;1.60;;;4.90;99.90;;;;;;4920894;29;20219;-74
2023/11/17 16:16:22;;;;;;;1.60;1.50;;;4.90;99.90;;;;;;4920266;29;20998;-72
2023/11/17 16:18:50;;;;;;;2.83;1.90;;;4.80;99.90;;;;;;4915268;29;20222;-73
2023/11/17 16:21:18;;;;;;;2.92;1.60;;;4.70;99.90;;;;;;4911997;29;20657;-72
2023/11/17 16:23:46;;;;;;;2.47;1.67;;;4.60;99.90;;;;;;4918360;29;20212;-72
2023/11/17 16:26:14;;;;;;;1.95;1.63;;;4.60;99.90;;;;;;4913648;29;20525;-72
2023/11/17 16:28:42;;;;;;;2.92;2.17;;;4.50;99.90;;;;;;4917670;29;20225;-72
2023/11/17 16:31:11;;;;;;;2.75;2.55;;;4.50;99.90;;;;;;4915839;29;20242;-72
2023/11/17 16:33:40;;;;;;;6.43;2.75;;;4.40;99.90;;;;;;4915652;29;20313;-72
2023/11/17 16:36:10;;;;;;;2.45;1.75;;;4.40;99.90;;;;;;4914169;29;20311;-73
2023/11/17 16:38:41;;;;;;;1.73;1.52;;;4.30;99.90;;;;;;4917676;29;20222;-73
2023/11/17 16:41:07;;;;;;;2.85;1.80;;;4.30;99.90;;;;;;4918201;29;20726;-73
2023/11/17 16:43:39;;;;;;;2.30;1.40;;;4.20;99.90;;;;;;4920821;29;20216;-74
2023/11/17 16:46:10;;;;;;;1.63;1.52;;;4.10;99.90;;;;;;4917871;29;20219;-74
2023/11/17 16:48:37;;;;;;;1.45;1.35;;;4.10;99.90;;;;;;4917421;29;20260;-72
2023/11/17 16:51:07;;;;;;;1.70;1.60;;;4.10;99.90;;;;;;4919976;29;20245;-74
2023/11/17 16:53:34;;;;;;;1.52;1.10;;;4.00;99.90;;;;;;4917291;29;20208;-74
2023/11/17 16:56:02;;;;;;;1.70;1.60;;;3.90;99.90;;;;;;4916075;29;20214;-73
2023/11/17 16:58:33;;;;;;;1.30;1.13;;;3.90;99.90;;;;;;4916488;29;20242;-74
2023/11/17 17:01:01;;;;;;;2.00;1.80;;;3.90;99.90;;;;;;4923399;29;20457;-71
2023/11/17 17:03:28;;;;;;;2.67;2.20;;;3.80;99.90;;;;;;4932599;29;20217;-73
2023/11/17 17:05:57;;;;;;;2.53;1.95;;;3.80;99.90;;;;;;4916741;29;20210;-73
2023/11/17 17:08:24;;;;;;;2.55;1.50;;;3.70;99.90;;;;;;4917050;29;20694;-73
2023/11/17 17:10:52;;;;;;;3.13;2.53;;;3.70;99.90;;;;;;4917161;29;20229;-73
2023/11/17 17:13:20;;;;;;;2.88;2.00;;;3.60;99.90;;;;;;4916582;29;20211;-73
2023/11/17 17:15:48;;;;;;;2.25;2.05;;;3.60;99.90;;;;;;4922288;29;20289;-72
2023/11/17 17:18:17;;;;;;;2.80;1.75;;;3.50;99.90;;;;;;4916995;29;20233;-73
2023/11/17 17:20:46;;;;;;;2.10;1.90;;;3.50;99.90;;;;;;4922115;29;20283;-73
2023/11/17 17:23:14;;;;;;;2.55;2.33;;;3.50;99.90;;;;;;4916125;29;20300;-72